createdAt,value
2022-09-03T00:00:07.659Z,16.6
2022-09-03T00:05:08.440Z,16.6
2022-09-03T00:10:08.147Z,16.3
2022-09-03T00:15:08.112Z,16.3
2022-09-03T00:20:07.821Z,16.3
2022-09-03T00:25:08.514Z,16.3
2022-09-03T00:30:08.215Z,16.2
2022-09-03T00:35:08.520Z,16.2
2022-09-03T00:40:08.206Z,15.8
2022-09-03T00:45:07.873Z,15.8
2022-09-03T00:50:08.610Z,15.8
2022-09-03T00:55:08.299Z,15.8
2022-09-03T01:00:13.104Z,15.8
2022-09-03T01:05:07.795Z,15.8
2022-09-03T01:10:08.688Z,15.8
2022-09-03T01:15:08.393Z,15.8
2022-09-03T01:20:08.103Z,15.6
2022-09-03T01:25:16.692Z,15.6
2022-09-03T01:30:08.480Z,15.5
2022-09-03T01:35:08.251Z,15.5
2022-09-03T01:40:08.043Z,15.3
2022-09-03T01:45:07.760Z,15.3
2022-09-03T01:50:16.622Z,15.1
2022-09-03T01:55:08.344Z,15.1
2022-09-03T02:00:08.048Z,15.1
2022-09-03T02:05:07.754Z,15.1
2022-09-03T02:10:08.463Z,15.0
2022-09-03T02:15:08.523Z,15.0
2022-09-03T02:20:08.282Z,15.1
2022-09-03T02:25:07.984Z,15.1
2022-09-03T02:30:07.731Z,15.0
2022-09-03T02:35:08.433Z,15.0
2022-09-03T02:40:08.218Z,15.0
2022-09-03T02:45:08.026Z,15.0
2022-09-03T02:50:07.741Z,14.5
2022-09-03T02:55:08.463Z,14.5
2022-09-03T03:00:08.179Z,14.6
2022-09-03T03:05:07.930Z,14.6
2022-09-03T03:10:08.627Z,14.5
2022-09-03T03:15:08.344Z,14.5
2022-09-03T03:20:08.033Z,14.3
2022-09-03T03:25:07.746Z,14.3
2022-09-03T03:30:08.483Z,14.3
2022-09-03T03:35:08.210Z,14.3
2022-09-03T03:40:07.942Z,14.3
2022-09-03T03:45:07.658Z,14.3
2022-09-03T03:50:08.334Z,14.1
2022-09-03T03:55:08.046Z,14.1
2022-09-03T04:00:07.742Z,14.1
2022-09-03T04:05:02.875Z,14.1
2022-09-03T04:10:02.834Z,13.8
2022-09-03T04:15:02.794Z,13.8
2022-09-03T04:20:02.602Z,13.6
2022-09-03T04:25:02.434Z,13.6
2022-09-03T04:30:02.740Z,13.6
2022-09-03T04:35:02.373Z,13.6
2022-09-03T04:40:02.353Z,13.6
2022-09-03T04:45:02.275Z,13.6
2022-09-03T04:50:02.130Z,13.6
2022-09-03T04:55:02.044Z,13.6
2022-09-03T05:00:01.951Z,13.5
2022-09-03T05:05:01.739Z,13.6
2022-09-03T05:10:02.575Z,13.6
2022-09-03T05:15:02.420Z,13.5
2022-09-03T05:20:02.278Z,13.5
2022-09-03T05:25:02.252Z,13.6
2022-09-03T05:30:01.954Z,13.6
2022-09-03T05:35:01.867Z,13.6
2022-09-03T05:40:02.744Z,13.8
2022-09-03T05:45:02.678Z,13.8
2022-09-03T05:50:02.426Z,13.8
2022-09-03T05:55:02.232Z,14.0
2022-09-03T06:00:02.107Z,14.0
2022-09-03T06:05:01.939Z,14.3
2022-09-03T06:10:02.692Z,14.8
2022-09-03T06:15:02.528Z,14.8
2022-09-03T06:20:02.441Z,14.8
2022-09-03T06:25:02.278Z,15.1
2022-09-03T06:30:02.211Z,15.1
2022-09-03T06:35:02.146Z,15.8
2022-09-03T06:40:02.123Z,15.8
2022-09-03T06:45:02.084Z,15.8
2022-09-03T06:50:01.973Z,16.2
2022-09-03T06:55:01.894Z,16.2
2022-09-03T07:00:02.792Z,16.7
2022-09-03T07:05:02.664Z,16.7
2022-09-03T07:10:02.588Z,17.2
2022-09-03T07:15:02.455Z,17.2
2022-09-03T07:20:01.928Z,17.7
2022-09-03T07:25:02.884Z,17.7
2022-09-03T07:30:02.807Z,18.2
2022-09-03T07:35:02.660Z,18.2
2022-09-03T07:40:02.585Z,18.7
2022-09-03T07:45:02.132Z,18.7
2022-09-03T07:50:01.873Z,19.2
2022-09-03T07:55:02.624Z,19.2
2022-09-03T08:00:02.501Z,20.0
2022-09-03T08:05:02.339Z,20.0
2022-09-03T08:10:02.134Z,21.7
2022-09-03T08:15:02.262Z,21.7
2022-09-03T08:20:01.978Z,22.5
2022-09-03T08:25:01.742Z,22.5
2022-09-03T08:30:02.500Z,23.2
2022-09-03T08:35:02.527Z,23.2
2022-09-03T08:40:02.859Z,23.2
2022-09-03T08:45:02.713Z,25.3
2022-09-03T08:50:02.553Z,25.3
2022-09-03T08:55:02.349Z,24.7
2022-09-03T09:00:02.224Z,24.7
2022-09-03T09:05:02.197Z,24.7
2022-09-03T09:10:01.840Z,24.7
2022-09-03T09:15:02.747Z,26.0
2022-09-03T09:20:02.618Z,26.0
2022-09-03T09:25:02.470Z,26.2
2022-09-03T09:30:02.440Z,26.2
2022-09-03T09:35:02.456Z,25.8
2022-09-03T09:40:02.433Z,25.8
2022-09-03T09:45:02.299Z,26.8
2022-09-03T09:50:02.212Z,26.8
2022-09-03T09:55:02.126Z,27.3
2022-09-03T10:00:02.055Z,27.3
2022-09-03T10:05:01.837Z,28.7
2022-09-03T10:10:02.707Z,26.7
2022-09-03T10:15:02.645Z,27.7
2022-09-03T10:20:02.458Z,27.7
2022-09-03T10:25:02.340Z,26.8
2022-09-03T10:30:02.268Z,26.8
2022-09-03T10:35:01.949Z,28.0
2022-09-03T10:40:01.888Z,27.7
2022-09-03T10:45:02.747Z,27.7
2022-09-03T10:50:02.605Z,28.7
2022-09-03T10:55:02.528Z,28.7
2022-09-03T11:00:02.298Z,27.5
2022-09-03T11:05:02.128Z,27.5
2022-09-03T11:10:01.911Z,27.7
2022-09-03T11:15:04.346Z,27.7
2022-09-03T11:20:02.175Z,28.1
2022-09-03T11:25:01.921Z,28.1
2022-09-03T11:30:01.808Z,28.6
2022-09-03T11:35:02.649Z,28.6
2022-09-03T11:40:02.480Z,29.2
2022-09-03T11:45:02.482Z,29.2
2022-09-03T11:50:02.402Z,30.0
2022-09-03T11:55:02.356Z,30.0
2022-09-03T12:00:02.632Z,30.6
2022-09-03T12:05:02.588Z,29.7
2022-09-03T12:10:02.564Z,29.6
2022-09-03T12:15:02.479Z,29.6
2022-09-03T12:20:03.232Z,30.7
2022-09-03T12:25:06.721Z,30.7
2022-09-03T12:30:02.703Z,29.0
2022-09-03T12:35:02.485Z,30.5
2022-09-03T12:40:07.755Z,30.2
2022-09-03T12:45:09.475Z,32.2
2022-09-03T12:50:02.634Z,28.3
2022-09-03T12:55:02.445Z,29.6
2022-09-03T13:00:02.379Z,31.6
2022-09-03T13:05:02.237Z,29.7
2022-09-03T13:10:02.058Z,30.0
2022-09-03T13:15:01.929Z,30.0
2022-09-03T13:20:02.732Z,31.3
2022-09-03T13:25:11.831Z,31.3
2022-09-03T13:30:02.750Z,32.2
2022-09-03T13:35:02.682Z,30.7
2022-09-03T13:40:02.431Z,28.7
2022-09-03T13:45:02.230Z,29.1
2022-09-03T13:50:07.375Z,29.1
2022-09-03T13:55:02.199Z,31.3
2022-09-03T14:00:02.154Z,31.3
2022-09-03T14:05:01.909Z,33.5
2022-09-03T14:10:02.715Z,33.5
2022-09-03T14:15:02.534Z,33.2
2022-09-03T14:20:02.376Z,33.2
2022-09-03T14:25:02.298Z,32.7
2022-09-03T14:30:02.229Z,30.7
2022-09-03T14:35:12.143Z,30.7
2022-09-03T14:40:02.417Z,30.5
2022-09-03T14:45:02.412Z,30.3
2022-09-03T14:50:02.342Z,30.3
2022-09-03T14:55:02.180Z,30.2
2022-09-03T15:00:10.384Z,30.2
2022-09-03T15:05:02.477Z,31.0
2022-09-03T15:10:02.584Z,31.0
2022-09-03T15:15:02.462Z,29.6
2022-09-03T15:20:02.432Z,29.6
2022-09-03T15:25:02.231Z,30.2
2022-09-03T15:30:02.254Z,30.2
2022-09-03T15:35:02.091Z,29.5
2022-09-03T15:40:02.040Z,29.1
2022-09-03T15:45:12.117Z,29.1
2022-09-03T15:50:02.027Z,28.3
2022-09-03T15:55:01.832Z,27.8
2022-09-03T16:00:02.720Z,27.8
2022-09-03T16:05:02.542Z,27.7
2022-09-03T16:10:23.316Z,27.7
2022-09-03T16:15:02.384Z,28.5
2022-09-03T16:20:02.085Z,28.5
2022-09-03T16:25:01.812Z,27.2
2022-09-03T16:30:02.798Z,27.2
2022-09-03T16:35:02.734Z,27.7
2022-09-03T16:40:02.633Z,27.5
2022-09-03T16:45:02.406Z,27.5
2022-09-03T16:50:02.315Z,27.7
2022-09-03T16:55:02.074Z,27.7
2022-09-03T17:00:02.118Z,27.5
2022-09-03T17:05:01.923Z,27.5
2022-09-03T17:10:02.822Z,27.2
2022-09-03T17:15:07.726Z,27.2
2022-09-03T17:20:02.686Z,27.3
2022-09-03T17:25:02.617Z,27.3
2022-09-03T17:30:02.534Z,26.8
2022-09-03T17:35:02.450Z,26.8
2022-09-03T17:40:02.498Z,26.2
2022-09-03T17:45:02.424Z,26.2
2022-09-03T17:50:02.253Z,26.0
2022-09-03T17:55:02.120Z,26.0
2022-09-03T18:00:02.038Z,24.7
2022-09-03T18:05:11.880Z,24.7
2022-09-03T18:10:02.737Z,24.3
2022-09-03T18:15:02.593Z,24.3
2022-09-03T18:20:02.373Z,23.7
2022-09-03T18:25:02.325Z,23.7
2022-09-03T18:30:02.127Z,23.2
2022-09-03T18:35:01.954Z,23.1
2022-09-03T18:40:01.889Z,23.1
2022-09-03T18:45:20.744Z,23.1
2022-09-03T18:50:02.078Z,22.7
2022-09-03T18:55:08.205Z,22.7
2022-09-03T19:00:12.590Z,22.2
2022-09-03T19:05:02.372Z,22.2
2022-09-03T19:10:01.828Z,21.7
2022-09-03T19:15:12.551Z,21.7
2022-09-03T19:20:02.409Z,21.5
2022-09-03T19:25:02.175Z,21.5
2022-09-03T19:30:02.194Z,21.3
2022-09-03T19:35:11.996Z,21.3
2022-09-03T19:40:01.813Z,21.2
2022-09-03T19:45:02.583Z,21.2
2022-09-03T19:50:02.531Z,21.0
2022-09-03T19:55:02.443Z,21.0
2022-09-03T20:00:02.322Z,20.7
2022-09-03T20:05:12.207Z,20.7
2022-09-03T20:10:02.146Z,20.6
2022-09-03T20:15:02.092Z,20.6
2022-09-03T20:20:02.056Z,20.3
2022-09-03T20:25:02.076Z,20.3
2022-09-03T20:30:01.934Z,20.3
2022-09-03T20:35:02.775Z,20.3
2022-09-03T20:40:02.757Z,20.2
2022-09-03T20:45:02.650Z,20.2
2022-09-03T20:50:02.454Z,20.1
2022-09-03T20:55:02.318Z,20.1
2022-09-03T21:00:09.106Z,20.0
2022-09-03T21:05:01.932Z,20.0
2022-09-03T21:10:01.897Z,19.7
2022-09-03T21:15:02.754Z,19.7
2022-09-03T21:20:06.442Z,19.5
2022-09-03T21:25:02.319Z,19.5
2022-09-03T21:30:02.306Z,19.5
2022-09-03T21:35:21.935Z,19.5
2022-09-03T21:40:08.690Z,19.3
2022-09-03T21:45:08.516Z,19.3
2022-09-03T21:50:10.918Z,19.3
2022-09-03T21:55:07.858Z,19.3
2022-09-03T22:00:08.551Z,19.1
2022-09-03T22:05:08.276Z,19.1
2022-09-03T22:10:07.971Z,19.0
2022-09-03T22:15:07.685Z,19.0
2022-09-03T22:20:08.365Z,19.0
2022-09-03T22:25:08.067Z,19.0
2022-09-03T22:30:07.765Z,18.8
2022-09-03T22:35:08.481Z,18.8
2022-09-03T22:40:08.218Z,18.6
2022-09-03T22:45:07.910Z,18.6
2022-09-03T22:50:08.620Z,18.2
2022-09-03T22:55:08.318Z,18.2
2022-09-03T23:01:00.223Z,18.2
2022-09-03T23:05:07.956Z,18.2
2022-09-03T23:10:08.299Z,18.1
2022-09-03T23:15:08.242Z,18.1
2022-09-03T23:25:08.602Z,17.8
2022-09-03T23:30:08.329Z,17.8
2022-09-03T23:35:08.044Z,17.8
2022-09-03T23:40:07.739Z,17.8
2022-09-03T23:45:08.579Z,17.8
2022-09-03T23:50:08.123Z,17.8
2022-09-03T23:55:07.838Z,17.8
